KLHM

Lincoln Regional / Karl Harder Field Airport

Lincoln, California, USA
METAR KLHM 191535Z AUTO 00000KT 10SM CLR 00/M03 A3007 RMK AO1
Observed Flight Rules
Nov-19 @ 15:35 UTC (6 minutes ago) Visual Flight Rules
Visibility Clouds
10 miles
  • Clear skies
Temperatures Readings
Current 0°C / 32°F
Dewpoint -3°C / 27°F
Humidity 80%
Altimeter 30.07" Hg
Pressure 1018 hPa
Elevation 37
METAR KLHM 191535Z AUTO 00000KT 10SM CLR 00/M03 A3007 RMK AO1
Observed Flight Rules
Nov-19 @ 15:35 UTC
(6 minutes ago)
VFR
Clouds
  • Clear skies
Temperature Dewpoint
0°C / 32°F -3°C / 27°F
Humidity Altimeter Pressure
80% 30.07" Hg 1018 hPa